sensor_id;sensor_type;location;lat;lon;timestamp;pressure;altitude;pressure_sealevel;temperature;humidity
29935;BME280;19905;53.370;-6.314;2023-05-02T00:01:36;101928.66;;;10.66;100.00
29935;BME280;19905;53.370;-6.314;2023-05-02T00:04:05;101937.25;;;10.70;100.00
29935;BME280;19905;53.370;-6.314;2023-05-02T00:06:34;101931.97;;;10.70;100.00
29935;BME280;19905;53.370;-6.314;2023-05-02T00:09:03;101941.13;;;10.64;100.00
29935;BME280;19905;53.370;-6.314;2023-05-02T00:11:32;101940.16;;;10.65;100.00
29935;BME280;19905;53.370;-6.314;2023-05-02T00:14:00;101943.50;;;10.69;100.00
29935;BME280;19905;53.370;-6.314;2023-05-02T00:16:28;101953.13;;;10.70;100.00
29935;BME280;19905;53.370;-6.314;2023-05-02T00:18:59;101949.19;;;10.77;100.00
29935;BME280;19905;53.370;-6.314;2023-05-02T00:21:27;101948.50;;;10.74;100.00
29935;BME280;19905;53.370;-6.314;2023-05-02T00:23:56;101953.03;;;10.72;100.00
29935;BME280;19905;53.370;-6.314;2023-05-02T00:26:24;101949.38;;;10.74;100.00
29935;BME280;19905;53.370;-6.314;2023-05-02T00:28:53;101959.09;;;10.74;100.00
29935;BME280;19905;53.370;-6.314;2023-05-02T00:31:22;101963.69;;;10.70;100.00
29935;BME280;19905;53.370;-6.314;2023-05-02T00:33:51;101966.16;;;10.73;100.00
29935;BME280;19905;53.370;-6.314;2023-05-02T00:36:21;101972.56;;;10.69;100.00
29935;BME280;19905;53.370;-6.314;2023-05-02T00:38:49;101962.47;;;10.76;100.00
29935;BME280;19905;53.370;-6.314;2023-05-02T00:41:18;101974.25;;;10.70;100.00
29935;BME280;19905;53.370;-6.314;2023-05-02T00:43:46;101974.16;;;10.72;100.00
29935;BME280;19905;53.370;-6.314;2023-05-02T00:46:15;101978.69;;;10.69;100.00
29935;BME280;19905;53.370;-6.314;2023-05-02T00:48:44;101982.03;;;10.73;100.00
29935;BME280;19905;53.370;-6.314;2023-05-02T00:51:13;101978.69;;;10.69;100.00
29935;BME280;19905;53.370;-6.314;2023-05-02T00:53:43;101989.38;;;10.68;100.00
29935;BME280;19905;53.370;-6.314;2023-05-02T00:56:14;101981.94;;;10.75;100.00
29935;BME280;19905;53.370;-6.314;2023-05-02T00:58:43;101983.22;;;10.67;100.00
29935;BME280;19905;53.370;-6.314;2023-05-02T01:01:32;101975.63;;;10.77;100.00
29935;BME280;19905;53.370;-6.314;2023-05-02T01:04:13;101979.44;;;10.72;100.00
29935;BME280;19905;53.370;-6.314;2023-05-02T01:06:55;101980.22;;;10.74;100.00
29935;BME280;19905;53.370;-6.314;2023-05-02T01:09:36;101974.16;;;10.72;100.00
29935;BME280;19905;53.370;-6.314;2023-05-02T01:12:13;101974.03;;;10.59;100.00
29935;BME280;19905;53.370;-6.314;2023-05-02T01:14:47;101969.34;;;10.64;100.00
29935;BME280;19905;53.370;-6.314;2023-05-02T01:17:18;101967.63;;;10.63;100.00
29935;BME280;19905;53.370;-6.314;2023-05-02T01:19:51;101968.81;;;10.73;100.00
29935;BME280;19905;53.370;-6.314;2023-05-02T01:22:22;101965.22;;;10.74;100.00
29935;BME280;19905;53.370;-6.314;2023-05-02T01:24:59;101967.28;;;10.69;100.00
29935;BME280;19905;53.370;-6.314;2023-05-02T01:27:38;101962.00;;;10.69;100.00
29935;BME280;19905;53.370;-6.314;2023-05-02T01:30:13;101967.53;;;10.64;100.00
29935;BME280;19905;53.370;-6.314;2023-05-02T01:32:46;101970.34;;;10.61;100.00
29935;BME280;19905;53.370;-6.314;2023-05-02T01:35:17;101969.66;;;10.58;100.00
29935;BME280;19905;53.370;-6.314;2023-05-02T01:37:46;101981.00;;;10.60;100.00
29935;BME280;19905;53.370;-6.314;2023-05-02T01:40:17;101978.19;;;10.63;100.00
29935;BME280;19905;53.370;-6.314;2023-05-02T01:42:50;101975.03;;;10.56;100.00
29935;BME280;19905;53.370;-6.314;2023-05-02T01:45:21;101975.03;;;10.56;100.00
29935;BME280;19905;53.370;-6.314;2023-05-02T01:47:51;101972.91;;;10.63;100.00
29935;BME280;19905;53.370;-6.314;2023-05-02T01:50:23;101977.50;;;10.59;100.00
29935;BME280;19905;53.370;-6.314;2023-05-02T01:52:53;101976.72;;;10.57;100.00
29935;BME280;19905;53.370;-6.314;2023-05-02T01:55:23;101974.69;;;10.78;100.00
29935;BME280;19905;53.370;-6.314;2023-05-02T01:57:54;101968.88;;;10.72;100.00
29935;BME280;19905;53.370;-6.314;2023-05-02T02:00:25;101967.44;;;10.66;100.00
29935;BME280;19905;53.370;-6.314;2023-05-02T02:02:55;101974.63;;;10.64;100.00
29935;BME280;19905;53.370;-6.314;2023-05-02T02:05:25;101966.94;;;10.59;100.00
29935;BME280;19905;53.370;-6.314;2023-05-02T02:07:54;101973.59;;;10.51;100.00
29935;BME280;19905;53.370;-6.314;2023-05-02T02:10:25;101973.25;;;10.57;100.00
29935;BME280;19905;53.370;-6.314;2023-05-02T02:13:01;101979.97;;;10.47;100.00
29935;BME280;19905;53.370;-6.314;2023-05-02T02:15:34;101978.72;;;10.54;100.00
29935;BME280;19905;53.370;-6.314;2023-05-02T02:18:09;101976.72;;;10.57;100.00
29935;BME280;19905;53.370;-6.314;2023-05-02T02:20:42;101974.00;;;10.43;100.00
29935;BME280;19905;53.370;-6.314;2023-05-02T02:23:12;101975.97;;;10.39;100.00
29935;BME280;19905;53.370;-6.314;2023-05-02T02:25:43;101978.81;;;10.36;100.00
29935;BME280;19905;53.370;-6.314;2023-05-02T02:28:12;101977.69;;;10.40;100.00
29935;BME280;19905;53.370;-6.314;2023-05-02T02:30:42;101983.03;;;10.39;100.00
29935;BME280;19905;53.370;-6.314;2023-05-02T02:33:11;101983.63;;;10.28;100.00
29935;BME280;19905;53.370;-6.314;2023-05-02T02:35:43;101981.75;;;10.30;100.00
29935;BME280;19905;53.370;-6.314;2023-05-02T02:38:22;101988.66;;;10.33;100.00
29935;BME280;19905;53.370;-6.314;2023-05-02T02:40:58;101986.88;;;10.33;100.00
29935;BME280;19905;53.370;-6.314;2023-05-02T02:43:33;101994.72;;;10.35;100.00
29935;BME280;19905;53.370;-6.314;2023-05-02T02:46:15;101989.97;;;10.41;100.00
29935;BME280;19905;53.370;-6.314;2023-05-02T02:48:51;101997.53;;;10.48;100.00
29935;BME280;19905;53.370;-6.314;2023-05-02T02:51:27;101989.53;;;10.49;100.00
29935;BME280;19905;53.370;-6.314;2023-05-02T02:54:02;101991.81;;;10.39;100.00
29935;BME280;19905;53.370;-6.314;2023-05-02T02:56:58;101990.28;;;10.35;100.00
29935;BME280;19905;53.370;-6.314;2023-05-02T02:59:33;101989.09;;;10.41;100.00
29935;BME280;19905;53.370;-6.314;2023-05-02T03:02:06;101989.78;;;10.29;100.00
29935;BME280;19905;53.370;-6.314;2023-05-02T03:04:38;101990.78;;;10.26;100.00
29935;BME280;19905;53.370;-6.314;2023-05-02T03:07:08;101990.94;;;10.23;100.00
29935;BME280;19905;53.370;-6.314;2023-05-02T03:09:41;101992.03;;;10.19;100.00
29935;BME280;19905;53.370;-6.314;2023-05-02T03:12:11;102001.81;;;10.17;100.00
29935;BME280;19905;53.370;-6.314;2023-05-02T03:14:40;101998.06;;;10.21;100.00
29935;BME280;19905;53.370;-6.314;2023-05-02T03:17:11;101997.22;;;10.21;100.00
29935;BME280;19905;53.370;-6.314;2023-05-02T03:19:39;101992.72;;;10.23;100.00
29935;BME280;19905;53.370;-6.314;2023-05-02T03:22:08;101989.25;;;10.22;100.00
29935;BME280;19905;53.370;-6.314;2023-05-02T03:24:36;101997.41;;;10.17;100.00
29935;BME280;19905;53.370;-6.314;2023-05-02T03:27:04;101993.97;;;10.00;100.00
29935;BME280;19905;53.370;-6.314;2023-05-02T03:29:33;102003.59;;;10.01;100.00
29935;BME280;19905;53.370;-6.314;2023-05-02T03:32:02;101995.50;;;10.04;100.00
29935;BME280;19905;53.370;-6.314;2023-05-02T03:34:32;101996.88;;;10.11;100.00
29935;BME280;19905;53.370;-6.314;2023-05-02T03:37:01;101984.72;;;10.08;100.00
29935;BME280;19905;53.370;-6.314;2023-05-02T03:39:29;101976.34;;;10.00;100.00
29935;BME280;19905;53.370;-6.314;2023-05-02T03:41:58;101988.00;;;9.96;100.00
29935;BME280;19905;53.370;-6.314;2023-05-02T03:44:26;101982.63;;;9.98;100.00
29935;BME280;19905;53.370;-6.314;2023-05-02T03:46:56;101972.91;;;9.98;100.00
29935;BME280;19905;53.370;-6.314;2023-05-02T03:49:24;101973.00;;;9.97;100.00
29935;BME280;19905;53.370;-6.314;2023-05-02T03:51:56;101974.44;;;9.86;100.00
29935;BME280;19905;53.370;-6.314;2023-05-02T03:54:24;101977.84;;;9.88;100.00
29935;BME280;19905;53.370;-6.314;2023-05-02T03:56:53;101978.19;;;9.98;100.00
29935;BME280;19905;53.370;-6.314;2023-05-02T03:59:21;101988.75;;;9.98;100.00
29935;BME280;19905;53.370;-6.314;2023-05-02T04:01:50;101986.09;;;9.98;100.00
29935;BME280;19905;53.370;-6.314;2023-05-02T04:04:19;101983.72;;;9.93;100.00
29935;BME280;19905;53.370;-6.314;2023-05-02T04:06:48;101990.53;;;9.98;100.00
29935;BME280;19905;53.370;-6.314;2023-05-02T04:09:18;101997.13;;;10.06;100.00
29935;BME280;19905;53.370;-6.314;2023-05-02T04:11:51;101993.47;;;10.09;100.00
29935;BME280;19905;53.370;-6.314;2023-05-02T04:14:20;101997.44;;;10.00;100.00
29935;BME280;19905;53.370;-6.314;2023-05-02T04:16:48;101997.50;;;9.99;100.00
29935;BME280;19905;53.370;-6.314;2023-05-02T04:19:18;101987.28;;;9.92;100.00
29935;BME280;19905;53.370;-6.314;2023-05-02T04:21:46;101984.75;;;9.91;100.00
29935;BME280;19905;53.370;-6.314;2023-05-02T04:24:15;101986.59;;;9.89;100.00
29935;BME280;19905;53.370;-6.314;2023-05-02T04:26:45;101990.88;;;9.91;100.00
29935;BME280;19905;53.370;-6.314;2023-05-02T04:29:15;101992.09;;;10.02;100.00
29935;BME280;19905;53.370;-6.314;2023-05-02T04:31:44;101987.03;;;9.97;100.00
29935;BME280;19905;53.370;-6.314;2023-05-02T04:34:12;101980.69;;;10.01;100.00
29935;BME280;19905;53.370;-6.314;2023-05-02T04:36:44;101977.09;;;10.02;100.00
29935;BME280;19905;53.370;-6.314;2023-05-02T04:39:13;101989.19;;;10.06;100.00
29935;BME280;19905;53.370;-6.314;2023-05-02T04:41:41;101983.56;;;9.97;100.00
29935;BME280;19905;53.370;-6.314;2023-05-02T04:44:11;101983.56;;;9.97;100.00
29935;BME280;19905;53.370;-6.314;2023-05-02T04:46:39;101990.22;;;10.04;100.00
29935;BME280;19905;53.370;-6.314;2023-05-02T04:49:08;101987.16;;;10.11;100.00
29935;BME280;19905;53.370;-6.314;2023-05-02T04:51:38;101988.25;;;10.07;100.00
29935;BME280;19905;53.370;-6.314;2023-05-02T04:54:06;101982.13;;;10.07;100.00
29935;BME280;19905;53.370;-6.314;2023-05-02T04:56:35;101982.13;;;10.07;100.00
29935;BME280;19905;53.370;-6.314;2023-05-02T04:59:04;101980.69;;;10.01;100.00
29935;BME280;19905;53.370;-6.314;2023-05-02T05:01:35;101985.72;;;10.06;100.00
29935;BME280;19905;53.370;-6.314;2023-05-02T05:04:06;101985.22;;;10.15;100.00
29935;BME280;19905;53.370;-6.314;2023-05-02T05:06:35;101985.22;;;10.15;100.00
29935;BME280;19905;53.370;-6.314;2023-05-02T05:09:03;101992.00;;;10.03;100.00
29935;BME280;19905;53.370;-6.314;2023-05-02T05:11:33;101991.59;;;10.11;100.00
29935;BME280;19905;53.370;-6.314;2023-05-02T05:14:01;101994.22;;;10.11;100.00
29935;BME280;19905;53.370;-6.314;2023-05-02T05:16:31;101998.06;;;10.05;100.00
29935;BME280;19905;53.370;-6.314;2023-05-02T05:19:01;102002.84;;;10.14;100.00
29935;BME280;19905;53.370;-6.314;2023-05-02T05:21:30;102002.50;;;10.21;100.00
29935;BME280;19905;53.370;-6.314;2023-05-02T05:23:58;101999.81;;;10.22;100.00
29935;BME280;19905;53.370;-6.314;2023-05-02T05:26:27;102000.91;;;10.18;100.00
29935;BME280;19905;53.370;-6.314;2023-05-02T05:28:55;102009.91;;;10.14;100.00
29935;BME280;19905;53.370;-6.314;2023-05-02T05:31:24;102013.84;;;10.23;100.00
29935;BME280;19905;53.370;-6.314;2023-05-02T05:33:53;102014.25;;;10.15;100.00
29935;BME280;19905;53.370;-6.314;2023-05-02T05:36:23;102015.94;;;10.16;100.00
29935;BME280;19905;53.370;-6.314;2023-05-02T05:38:52;102014.34;;;10.13;100.00
29935;BME280;19905;53.370;-6.314;2023-05-02T05:41:21;102009.34;;;10.25;100.00
29935;BME280;19905;53.370;-6.314;2023-05-02T05:43:50;102011.22;;;10.23;100.00
29935;BME280;19905;53.370;-6.314;2023-05-02T05:46:18;102001.91;;;10.15;100.00
29935;BME280;19905;53.370;-6.314;2023-05-02T05:48:47;102010.41;;;10.21;100.00
29935;BME280;19905;53.370;-6.314;2023-05-02T05:51:16;102013.44;;;10.30;100.00
29935;BME280;19905;53.370;-6.314;2023-05-02T05:53:46;101998.84;;;10.23;100.00
29935;BME280;19905;53.370;-6.314;2023-05-02T05:56:15;101999.16;;;10.17;100.00
29935;BME280;19905;53.370;-6.314;2023-05-02T05:58:44;102003.78;;;10.13;100.00
29935;BME280;19905;53.370;-6.314;2023-05-02T06:01:12;101998.25;;;10.18;100.00
29935;BME280;19905;53.370;-6.314;2023-05-02T06:03:41;101995.75;;;10.32;100.00
29935;BME280;19905;53.370;-6.314;2023-05-02T06:06:10;101991.41;;;10.31;100.00
29935;BME280;19905;53.370;-6.314;2023-05-02T06:08:38;101996.94;;;10.27;100.00
29935;BME280;19905;53.370;-6.314;2023-05-02T06:11:11;102001.03;;;10.32;100.00
29935;BME280;19905;53.370;-6.314;2023-05-02T06:13:40;102000.38;;;10.45;100.00
29935;BME280;19905;53.370;-6.314;2023-05-02T06:16:09;101993.03;;;10.50;100.00
29935;BME280;19905;53.370;-6.314;2023-05-02T06:18:37;101990.38;;;10.65;100.00
29935;BME280;19905;53.370;-6.314;2023-05-02T06:21:06;101988.09;;;10.59;100.00
29935;BME280;19905;53.370;-6.314;2023-05-02T06:23:35;101983.50;;;10.63;100.00
29935;BME280;19905;53.370;-6.314;2023-05-02T06:26:06;101984.84;;;10.54;100.00
29935;BME280;19905;53.370;-6.314;2023-05-02T06:28:37;101982.59;;;10.62;100.00
29935;BME280;19905;53.370;-6.314;2023-05-02T06:31:05;101992.69;;;10.56;100.00
29935;BME280;19905;53.370;-6.314;2023-05-02T06:33:35;101990.22;;;10.68;100.00
29935;BME280;19905;53.370;-6.314;2023-05-02T06:36:04;101992.13;;;10.81;100.00
29935;BME280;19905;53.370;-6.314;2023-05-02T06:38:32;101985.00;;;10.83;100.00
29935;BME280;19905;53.370;-6.314;2023-05-02T06:41:01;101995.34;;;11.02;100.00
29935;BME280;19905;53.370;-6.314;2023-05-02T06:43:29;101992.75;;;11.16;100.00
29935;BME280;19905;53.370;-6.314;2023-05-02T06:46:00;101989.09;;;11.18;100.00
29935;BME280;19905;53.370;-6.314;2023-05-02T06:48:29;101988.28;;;11.32;100.00
29935;BME280;19905;53.370;-6.314;2023-05-02T06:50:57;101986.38;;;11.34;100.00
29935;BME280;19905;53.370;-6.314;2023-05-02T06:53:26;101984.13;;;11.28;100.00
29935;BME280;19905;53.370;-6.314;2023-05-02T06:55:54;101983.16;;;11.29;100.00
29935;BME280;19905;53.370;-6.314;2023-05-02T06:58:23;101987.50;;;11.30;100.00
29935;BME280;19905;53.370;-6.314;2023-05-02T07:00:52;101988.84;;;11.23;100.00
29935;BME280;19905;53.370;-6.314;2023-05-02T07:03:22;101989.69;;;11.08;100.00
29935;BME280;19905;53.370;-6.314;2023-05-02T07:05:50;101995.63;;;10.97;100.00
29935;BME280;19905;53.370;-6.314;2023-05-02T07:08:19;101996.47;;;10.98;100.00
29935;BME280;19905;53.370;-6.314;2023-05-02T07:10:49;101994.06;;;11.09;100.00
29935;BME280;19905;53.370;-6.314;2023-05-02T07:13:17;101999.25;;;11.10;100.00
29935;BME280;19905;53.370;-6.314;2023-05-02T07:15:46;101995.31;;;11.17;100.00
29935;BME280;19905;53.370;-6.314;2023-05-02T07:18:14;101994.50;;;11.31;100.00
29935;BME280;19905;53.370;-6.314;2023-05-02T07:20:44;101987.25;;;11.35;100.00
29935;BME280;19905;53.370;-6.314;2023-05-02T07:23:13;101977.72;;;11.32;100.00
29935;BME280;19905;53.370;-6.314;2023-05-02T07:25:41;101994.91;;;11.39;100.00
29935;BME280;19905;53.370;-6.314;2023-05-02T07:28:10;101999.50;;;11.66;100.00
29935;BME280;19905;53.370;-6.314;2023-05-02T07:30:38;101991.94;;;11.74;100.00
29935;BME280;19905;53.370;-6.314;2023-05-02T07:33:06;101984.44;;;11.82;100.00
29935;BME280;19905;53.370;-6.314;2023-05-02T07:35:35;101982.91;;;11.92;100.00
29935;BME280;19905;53.370;-6.314;2023-05-02T07:38:05;101982.53;;;11.99;100.00
29935;BME280;19905;53.370;-6.314;2023-05-02T07:40:34;101985.56;;;11.92;100.00
29935;BME280;19905;53.370;-6.314;2023-05-02T07:43:03;101986.00;;;12.13;100.00
29935;BME280;19905;53.370;-6.314;2023-05-02T07:45:31;101981.38;;;12.03;100.00
29935;BME280;19905;53.370;-6.314;2023-05-02T07:48:00;101986.97;;;11.98;100.00
29935;BME280;19905;53.370;-6.314;2023-05-02T07:50:29;101990.72;;;11.80;100.00
29935;BME280;19905;53.370;-6.314;2023-05-02T07:52:57;101997.16;;;12.04;100.00
29935;BME280;19905;53.370;-6.314;2023-05-02T07:55:27;101991.69;;;11.93;100.00
29935;BME280;19905;53.370;-6.314;2023-05-02T07:57:57;101986.78;;;12.01;100.00
29935;BME280;19905;53.370;-6.314;2023-05-02T08:00:26;101988.50;;;11.88;100.00
29935;BME280;19905;53.370;-6.314;2023-05-02T08:02:56;101998.88;;;11.91;100.00
29935;BME280;19905;53.370;-6.314;2023-05-02T08:05:25;102003.25;;;11.92;100.00
29935;BME280;19905;53.370;-6.314;2023-05-02T08:07:53;101994.06;;;12.12;100.00
29935;BME280;19905;53.370;-6.314;2023-05-02T08:10:22;101999.53;;;12.37;100.00
29935;BME280;19905;53.370;-6.314;2023-05-02T08:12:51;101993.47;;;12.21;100.00
29935;BME280;19905;53.370;-6.314;2023-05-02T08:15:20;101987.91;;;12.26;100.00
29935;BME280;19905;53.370;-6.314;2023-05-02T08:17:48;101992.06;;;12.30;100.00
29935;BME280;19905;53.370;-6.314;2023-05-02T08:20:17;101992.59;;;12.49;100.00
29935;BME280;19905;53.370;-6.314;2023-05-02T08:22:46;101997.66;;;12.66;100.00
29935;BME280;19905;53.370;-6.314;2023-05-02T08:25:15;102002.19;;;12.64;100.00
29935;BME280;19905;53.370;-6.314;2023-05-02T08:27:44;102004.00;;;12.64;100.00
29935;BME280;19905;53.370;-6.314;2023-05-02T08:30:14;102008.69;;;12.73;100.00
29935;BME280;19905;53.370;-6.314;2023-05-02T08:32:42;102010.09;;;12.52;100.00
29935;BME280;19905;53.370;-6.314;2023-05-02T08:35:11;102010.47;;;12.45;100.00
29935;BME280;19905;53.370;-6.314;2023-05-02T08:37:40;102010.06;;;12.66;100.00
29935;BME280;19905;53.370;-6.314;2023-05-02T08:40:11;102015.91;;;12.71;100.00
29935;BME280;19905;53.370;-6.314;2023-05-02T08:45:26;102014.13;;;12.98;100.00
29935;BME280;19905;53.370;-6.314;2023-05-02T08:47:55;102015.06;;;12.97;100.00
29935;BME280;19905;53.370;-6.314;2023-05-02T08:50:24;102021.66;;;13.05;100.00
29935;BME280;19905;53.370;-6.314;2023-05-02T08:52:54;102012.66;;;13.07;100.00
29935;BME280;19905;53.370;-6.314;2023-05-02T08:55:24;102018.09;;;13.06;100.00
29935;BME280;19905;53.370;-6.314;2023-05-02T08:57:56;102020.94;;;13.30;100.00
29935;BME280;19905;53.370;-6.314;2023-05-02T09:00:28;102002.91;;;13.35;100.00
29935;BME280;19905;53.370;-6.314;2023-05-02T09:03:05;102001.44;;;13.43;100.00
29935;BME280;19905;53.370;-6.314;2023-05-02T09:05:39;102009.28;;;13.58;100.00
29935;BME280;19905;53.370;-6.314;2023-05-02T09:08:08;102003.34;;;13.54;100.00
29935;BME280;19905;53.370;-6.314;2023-05-02T09:10:36;102001.44;;;13.43;100.00
29935;BME280;19905;53.370;-6.314;2023-05-02T09:13:31;102018.50;;;13.39;100.00
29935;BME280;19905;53.370;-6.314;2023-05-02T09:16:02;102011.06;;;13.32;100.00
29935;BME280;19905;53.370;-6.314;2023-05-02T09:18:32;102013.22;;;13.52;100.00
29935;BME280;19905;53.370;-6.314;2023-05-02T09:21:04;102019.88;;;13.45;100.00
29935;BME280;19905;53.370;-6.314;2023-05-02T09:23:37;102011.63;;;13.50;100.00
29935;BME280;19905;53.370;-6.314;2023-05-02T09:26:15;102007.59;;;13.57;100.00
29935;BME280;19905;53.370;-6.314;2023-05-02T09:28:45;102009.72;;;13.52;100.00
29935;BME280;19905;53.370;-6.314;2023-05-02T09:31:17;101996.50;;;13.37;100.00
29935;BME280;19905;53.370;-6.314;2023-05-02T09:34:08;101997.84;;;13.57;100.00
29935;BME280;19905;53.370;-6.314;2023-05-02T09:36:42;101995.69;;;14.01;100.00
29935;BME280;19905;53.370;-6.314;2023-05-02T09:39:13;101987.72;;;14.13;100.00
29935;BME280;19905;53.370;-6.314;2023-05-02T09:41:42;101972.94;;;14.09;100.00
29935;BME280;19905;53.370;-6.314;2023-05-02T09:44:12;101974.03;;;14.07;100.00
29935;BME280;19905;53.370;-6.314;2023-05-02T09:46:44;101973.91;;;14.08;100.00
29935;BME280;19905;53.370;-6.314;2023-05-02T09:49:13;101970.97;;;14.37;100.00
29935;BME280;19905;53.370;-6.314;2023-05-02T09:51:45;101965.25;;;14.67;100.00
29935;BME280;19905;53.370;-6.314;2023-05-02T09:54:14;101974.53;;;14.85;100.00
29935;BME280;19905;53.370;-6.314;2023-05-02T09:57:01;101975.66;;;14.70;100.00
29935;BME280;19905;53.370;-6.314;2023-05-02T09:59:30;101976.50;;;14.70;100.00
29935;BME280;19905;53.370;-6.314;2023-05-02T10:02:01;101971.81;;;14.74;100.00
29935;BME280;19905;53.370;-6.314;2023-05-02T10:04:32;101980.28;;;14.42;100.00
29935;BME280;19905;53.370;-6.314;2023-05-02T10:07:02;101976.66;;;14.56;100.00
29935;BME280;19905;53.370;-6.314;2023-05-02T10:09:35;101981.84;;;14.94;100.00
29935;BME280;19905;53.370;-6.314;2023-05-02T10:12:08;101970.25;;;15.07;100.00
29935;BME280;19905;53.370;-6.314;2023-05-02T10:14:38;101975.84;;;15.15;100.00
29935;BME280;19905;53.370;-6.314;2023-05-02T10:17:11;101981.38;;;15.47;100.00
29935;BME280;19905;53.370;-6.314;2023-05-02T10:19:50;101979.47;;;15.60;100.00
29935;BME280;19905;53.370;-6.314;2023-05-02T10:22:21;101969.31;;;15.54;100.00
29935;BME280;19905;53.370;-6.314;2023-05-02T10:24:51;101977.88;;;15.58;100.00
29935;BME280;19905;53.370;-6.314;2023-05-02T10:27:21;101984.56;;;15.63;100.00
29935;BME280;19905;53.370;-6.314;2023-05-02T10:29:50;101966.94;;;15.73;100.00
29935;BME280;19905;53.370;-6.314;2023-05-02T10:32:21;101977.94;;;15.80;100.00
29935;BME280;19905;53.370;-6.314;2023-05-02T10:34:53;101970.72;;;15.36;100.00
29935;BME280;19905;53.370;-6.314;2023-05-02T10:37:25;101981.97;;;15.39;100.00
29935;BME280;19905;53.370;-6.314;2023-05-02T10:39:54;101988.84;;;15.88;100.00
29935;BME280;19905;53.370;-6.314;2023-05-02T10:42:23;101984.00;;;16.16;100.00
29935;BME280;19905;53.370;-6.314;2023-05-02T10:44:53;101979.41;;;16.18;100.00
29935;BME280;19905;53.370;-6.314;2023-05-02T10:47:24;101986.94;;;16.13;100.00
29935;BME280;19905;53.370;-6.314;2023-05-02T10:49:55;101987.16;;;16.32;100.00
29935;BME280;19905;53.370;-6.314;2023-05-02T10:52:28;101991.53;;;16.22;100.00
29935;BME280;19905;53.370;-6.314;2023-05-02T10:55:13;101992.38;;;16.00;100.00
29935;BME280;19905;53.370;-6.314;2023-05-02T10:58:19;101998.53;;;15.67;100.00
29935;BME280;19905;53.370;-6.314;2023-05-02T11:00:50;101999.50;;;15.88;100.00
29935;BME280;19905;53.370;-6.314;2023-05-02T11:03:55;102007.94;;;15.24;100.00
29935;BME280;19905;53.370;-6.314;2023-05-02T11:06:27;102015.84;;;15.02;100.00
29935;BME280;19905;53.370;-6.314;2023-05-02T11:09:29;102017.94;;;14.86;100.00
29935;BME280;19905;53.370;-6.314;2023-05-02T11:11:58;102031.84;;;14.65;100.00
29935;BME280;19905;53.370;-6.314;2023-05-02T11:14:44;102026.63;;;14.64;100.00
29935;BME280;19905;53.370;-6.314;2023-05-02T11:17:17;102037.94;;;14.55;100.00
29935;BME280;19905;53.370;-6.314;2023-05-02T11:20:18;102044.75;;;14.59;100.00
29935;BME280;19905;53.370;-6.314;2023-05-02T11:22:48;102034.09;;;14.46;100.00
29935;BME280;19905;53.370;-6.314;2023-05-02T11:25:34;102041.34;;;14.44;100.00
29935;BME280;19905;53.370;-6.314;2023-05-02T11:28:06;102030.81;;;14.42;100.00
29935;BME280;19905;53.370;-6.314;2023-05-02T11:30:39;102036.03;;;14.44;100.00
29935;BME280;19905;53.370;-6.314;2023-05-02T11:33:12;102034.94;;;14.59;100.00
29935;BME280;19905;53.370;-6.314;2023-05-02T11:35:46;102027.66;;;14.74;100.00
29935;BME280;19905;53.370;-6.314;2023-05-02T11:38:17;102024.38;;;14.70;100.00
29935;BME280;19905;53.370;-6.314;2023-05-02T11:40:55;102010.81;;;15.45;100.00
29935;BME280;19905;53.370;-6.314;2023-05-02T11:43:25;102016.44;;;15.65;100.00
29935;BME280;19905;53.370;-6.314;2023-05-02T11:45:58;102004.72;;;15.79;100.00
29935;BME280;19905;53.370;-6.314;2023-05-02T11:48:29;102015.03;;;15.83;100.00
29935;BME280;19905;53.370;-6.314;2023-05-02T11:51:00;102009.00;;;16.04;100.00
29935;BME280;19905;53.370;-6.314;2023-05-02T11:53:31;102010.19;;;16.22;100.00
29935;BME280;19905;53.370;-6.314;2023-05-02T11:56:01;102007.41;;;16.23;100.00
29935;BME280;19905;53.370;-6.314;2023-05-02T11:58:31;101996.50;;;16.81;100.00
29935;BME280;19905;53.370;-6.314;2023-05-02T12:01:11;101995.09;;;16.66;100.00
29935;BME280;19905;53.370;-6.314;2023-05-02T12:03:41;101999.91;;;15.95;100.00
29935;BME280;19905;53.370;-6.314;2023-05-02T12:06:12;102004.84;;;15.88;100.00
29935;BME280;19905;53.370;-6.314;2023-05-02T12:08:43;101999.28;;;16.25;100.00
29935;BME280;19905;53.370;-6.314;2023-05-02T12:11:12;101990.44;;;16.13;100.00
29935;BME280;19905;53.370;-6.314;2023-05-02T12:13:45;101987.94;;;16.77;100.00
29935;BME280;19905;53.370;-6.314;2023-05-02T12:16:16;101967.31;;;17.33;100.00
29935;BME280;19905;53.370;-6.314;2023-05-02T12:18:46;101973.75;;;17.30;100.00
29935;BME280;19905;53.370;-6.314;2023-05-02T12:21:17;101968.44;;;17.61;100.00
29935;BME280;19905;53.370;-6.314;2023-05-02T12:23:46;101965.97;;;17.99;100.00
29935;BME280;19905;53.370;-6.314;2023-05-02T12:26:15;101951.56;;;18.21;100.00
29935;BME280;19905;53.370;-6.314;2023-05-02T12:28:48;101940.19;;;18.29;100.00
29935;BME280;19905;53.370;-6.314;2023-05-02T12:31:17;101948.09;;;18.40;100.00
29935;BME280;19905;53.370;-6.314;2023-05-02T12:33:47;101937.81;;;18.45;100.00
29935;BME280;19905;53.370;-6.314;2023-05-02T12:36:18;101935.00;;;18.37;100.00
29935;BME280;19905;53.370;-6.314;2023-05-02T12:38:47;101942.94;;;18.77;100.00
29935;BME280;19905;53.370;-6.314;2023-05-02T12:41:17;101931.66;;;19.13;100.00
29935;BME280;19905;53.370;-6.314;2023-05-02T12:43:48;101923.25;;;18.88;100.00
29935;BME280;19905;53.370;-6.314;2023-05-02T12:46:17;101916.84;;;19.18;100.00
29935;BME280;19905;53.370;-6.314;2023-05-02T12:48:46;101916.28;;;19.24;100.00
29935;BME280;19905;53.370;-6.314;2023-05-02T12:51:30;101918.81;;;19.26;100.00
29935;BME280;19905;53.370;-6.314;2023-05-02T12:53:59;101908.56;;;19.59;100.00